createdAt,value
2019-05-28T00:00:31.011Z,18.90
2019-05-28T00:03:05.274Z,18.90
2019-05-28T00:05:38.151Z,18.90
2019-05-28T00:08:10.829Z,18.90
2019-05-28T00:10:42.871Z,18.90
2019-05-28T00:13:17.110Z,18.80
2019-05-28T00:15:49.738Z,18.80
2019-05-28T00:18:22.385Z,18.80
2019-05-28T00:20:55.993Z,18.80
2019-05-28T00:23:30.638Z,18.70
2019-05-28T00:26:04.471Z,18.80
2019-05-28T00:28:37.800Z,18.60
2019-05-28T00:31:10.458Z,18.60
2019-05-28T00:33:44.151Z,18.70
2019-05-28T00:36:16.581Z,18.60
2019-05-28T00:38:50.970Z,18.50
2019-05-28T00:41:24.544Z,18.50
2019-05-28T00:43:57.813Z,18.50
2019-05-28T00:46:31.484Z,18.50
2019-05-28T00:49:08.718Z,18.50
2019-05-28T00:51:43.458Z,18.50
2019-05-28T00:54:15.994Z,18.50
2019-05-28T00:56:51.387Z,18.60
2019-05-28T00:59:24.255Z,18.60
2019-05-28T01:01:57.745Z,18.40
2019-05-28T01:04:30.444Z,18.40
2019-05-28T01:07:02.773Z,18.40
2019-05-28T01:09:36.330Z,18.50
2019-05-28T01:12:10.891Z,18.50
2019-05-28T01:14:43.997Z,18.40
2019-05-28T01:17:16.686Z,18.50
2019-05-28T01:19:48.389Z,18.50
2019-05-28T01:22:22.250Z,18.40
2019-05-28T01:24:54.346Z,18.40
2019-05-28T01:27:27.571Z,18.40
2019-05-28T01:30:00.461Z,18.40
2019-05-28T01:32:33.323Z,18.40
2019-05-28T01:35:11.301Z,18.40
2019-05-28T01:37:44.406Z,18.50
2019-05-28T01:40:17.597Z,18.60
2019-05-28T01:42:49.150Z,18.60
2019-05-28T01:45:22.426Z,18.50
2019-05-28T01:47:57.775Z,18.40
2019-05-28T01:50:32.508Z,18.40
2019-05-28T01:53:05.173Z,18.40
2019-05-28T01:55:37.209Z,18.40
2019-05-28T01:58:10.010Z,18.40
2019-05-28T02:00:42.723Z,18.40
2019-05-28T02:03:15.859Z,18.40
2019-05-28T02:05:48.243Z,18.30
2019-05-28T02:08:20.634Z,18.40
2019-05-28T02:10:52.661Z,18.40
2019-05-28T02:13:26.265Z,18.50
2019-05-28T02:15:59.953Z,18.60
2019-05-28T02:18:32.766Z,18.60
2019-05-28T02:21:05.786Z,18.60
2019-05-28T02:23:38.238Z,18.60
2019-05-28T02:26:10.333Z,18.70
2019-05-28T02:28:41.975Z,18.60
2019-05-28T02:31:26.890Z,18.60
2019-05-28T02:33:48.611Z,18.50
2019-05-28T02:36:21.575Z,18.40
2019-05-28T02:39:04.757Z,18.40
2019-05-28T02:41:37.289Z,18.40
2019-05-28T02:44:11.092Z,18.30
2019-05-28T02:46:43.437Z,18.30
2019-05-28T02:49:15.518Z,18.30
2019-05-28T02:51:48.001Z,18.20
2019-05-28T02:54:20.307Z,18.20
2019-05-28T02:56:53.234Z,18.20
2019-05-28T02:59:26.603Z,18.20
2019-05-28T03:01:59.889Z,18.20
2019-05-28T03:04:33.195Z,18.20
2019-05-28T03:07:06.578Z,18.10
2019-05-28T03:09:41.897Z,18.10
2019-05-28T03:12:14.300Z,18.10
2019-05-28T03:14:46.794Z,18.00
2019-05-28T03:17:20.460Z,17.90
2019-05-28T03:19:52.174Z,18.00
2019-05-28T03:22:25.796Z,18.10
2019-05-28T03:24:58.976Z,18.10
2019-05-28T03:27:31.023Z,18.20
2019-05-28T03:30:03.032Z,18.20
2019-05-28T03:32:35.547Z,18.30
2019-05-28T03:35:07.812Z,18.40
2019-05-28T03:37:40.692Z,18.40
2019-05-28T03:40:14.942Z,18.50
2019-05-28T03:42:47.373Z,18.60
2019-05-28T03:45:20.284Z,18.70
2019-05-28T03:47:53.391Z,18.80
2019-05-28T03:50:25.400Z,19.00
2019-05-28T03:52:59.225Z,19.00
2019-05-28T03:55:33.459Z,19.10
2019-05-28T03:58:05.393Z,19.20
2019-05-28T04:00:37.894Z,19.20
2019-05-28T04:03:10.248Z,19.40
2019-05-28T04:05:43.510Z,19.50
2019-05-28T04:08:15.967Z,19.60
2019-05-28T04:10:48.830Z,19.80
2019-05-28T04:13:20.420Z,19.90
2019-05-28T04:15:51.981Z,20.00
2019-05-28T04:18:24.437Z,20.20
2019-05-28T04:20:56.454Z,20.30
2019-05-28T04:23:28.928Z,20.40
2019-05-28T04:26:01.154Z,20.50
2019-05-28T04:28:33.271Z,20.60
2019-05-28T04:31:05.761Z,20.70
2019-05-28T04:33:40.287Z,20.80
2019-05-28T04:36:12.015Z,20.90
2019-05-28T04:38:43.941Z,21.00
2019-05-28T04:41:15.968Z,21.20
2019-05-28T04:43:48.737Z,21.30
2019-05-28T04:46:21.917Z,21.50
2019-05-28T04:48:54.519Z,21.60
2019-05-28T04:51:27.184Z,21.70
2019-05-28T04:53:58.819Z,21.90
2019-05-28T04:56:31.229Z,22.10
2019-05-28T04:59:03.974Z,22.30
2019-05-28T05:01:37.243Z,22.30
2019-05-28T05:04:10.759Z,22.60
2019-05-28T05:06:44.240Z,22.80
2019-05-28T05:09:16.790Z,22.90
2019-05-28T05:11:48.966Z,23.00
2019-05-28T05:14:21.272Z,23.20
2019-05-28T05:16:54.431Z,23.30
2019-05-28T05:19:28.056Z,23.60
2019-05-28T05:22:02.237Z,23.60
2019-05-28T05:24:34.292Z,23.70
2019-05-28T05:27:07.617Z,24.60
2019-05-28T05:29:39.654Z,25.20
2019-05-28T05:32:11.705Z,25.60
2019-05-28T05:34:44.199Z,26.10
2019-05-28T05:37:16.801Z,26.20
2019-05-28T05:39:49.375Z,26.50
2019-05-28T05:42:22.690Z,26.60
2019-05-28T05:44:55.147Z,26.90
2019-05-28T05:47:27.591Z,27.00
2019-05-28T05:50:00.408Z,27.00
2019-05-28T05:52:33.890Z,27.10
2019-05-28T05:55:06.453Z,27.10
2019-05-28T05:57:42.681Z,27.40
2019-05-28T06:00:16.594Z,27.60
2019-05-28T06:02:49.454Z,27.70
2019-05-28T06:05:21.087Z,27.70
2019-05-28T06:07:53.228Z,27.80
2019-05-28T06:10:26.006Z,28.00
2019-05-28T06:12:58.703Z,27.50
2019-05-28T06:15:32.993Z,27.30
2019-05-28T06:18:07.255Z,26.80
2019-05-28T06:20:42.159Z,26.70
2019-05-28T06:23:17.182Z,26.80
2019-05-28T06:25:50.017Z,26.80
2019-05-28T06:28:22.163Z,27.20
2019-05-28T06:30:54.719Z,27.40
2019-05-28T06:33:27.201Z,27.70
2019-05-28T06:35:58.870Z,27.90
2019-05-28T06:38:31.697Z,28.10
2019-05-28T06:41:04.913Z,28.10
2019-05-28T06:43:36.922Z,28.30
2019-05-28T06:46:12.047Z,28.30
2019-05-28T06:48:44.088Z,28.50
2019-05-28T06:51:16.446Z,28.50
2019-05-28T06:53:48.460Z,28.50
2019-05-28T06:56:22.177Z,28.40
2019-05-28T06:58:55.859Z,28.50
2019-05-28T07:01:28.834Z,28.60
2019-05-28T07:04:13.278Z,28.90
2019-05-28T07:06:36.538Z,29.00
2019-05-28T07:09:11.830Z,29.00
2019-05-28T07:11:43.799Z,29.00
2019-05-28T07:14:16.301Z,29.20
2019-05-28T07:16:53.270Z,29.20
2019-05-28T07:19:24.937Z,29.80
2019-05-28T07:21:58.229Z,29.80
2019-05-28T07:24:31.551Z,29.90
2019-05-28T07:27:04.548Z,30.10
2019-05-28T07:29:38.887Z,30.20
2019-05-28T07:32:12.402Z,30.50
2019-05-28T07:34:48.316Z,30.20
2019-05-28T07:37:21.669Z,30.10
2019-05-28T07:39:55.527Z,30.20
2019-05-28T07:42:32.533Z,30.30
2019-05-28T07:45:04.549Z,30.20
2019-05-28T07:47:38.771Z,30.20
2019-05-28T07:50:12.014Z,30.30
2019-05-28T07:52:44.874Z,30.40
2019-05-28T07:55:19.645Z,30.70
2019-05-28T07:57:53.083Z,30.70
2019-05-28T08:00:43.422Z,30.40
2019-05-28T08:03:16.630Z,30.60
2019-05-28T08:05:48.997Z,30.60
2019-05-28T08:08:25.270Z,30.70
2019-05-28T08:10:56.820Z,30.80
2019-05-28T08:13:40.342Z,30.80
2019-05-28T08:16:17.391Z,30.80
2019-05-28T08:18:38.864Z,30.80
2019-05-28T08:21:12.358Z,31.00
2019-05-28T08:23:46.418Z,31.00
2019-05-28T08:26:19.642Z,30.90
2019-05-28T08:29:02.715Z,31.00
2019-05-28T08:31:37.355Z,31.30
2019-05-28T08:34:11.183Z,31.30
2019-05-28T08:37:01.860Z,31.60
2019-05-28T08:39:20.624Z,32.00
2019-05-28T08:41:54.218Z,32.30
2019-05-28T08:44:38.349Z,32.60
2019-05-28T08:47:13.084Z,32.60
2019-05-28T08:49:45.419Z,32.40
2019-05-28T08:52:18.246Z,32.40
2019-05-28T08:54:51.985Z,32.60
2019-05-28T08:57:24.998Z,33.00
2019-05-28T08:59:57.613Z,33.10
2019-05-28T09:02:31.362Z,32.90
2019-05-28T09:05:22.760Z,32.60
2019-05-28T09:07:38.426Z,32.90
2019-05-28T09:10:10.771Z,32.90
2019-05-28T09:12:44.604Z,33.00
2019-05-28T09:15:18.402Z,33.00
2019-05-28T09:17:53.206Z,33.10
2019-05-28T09:20:25.957Z,33.10
2019-05-28T09:23:00.095Z,33.00
2019-05-28T09:25:33.065Z,33.00
2019-05-28T09:28:07.065Z,33.20
2019-05-28T09:30:41.399Z,33.50
2019-05-28T09:33:14.748Z,33.80
2019-05-28T09:36:06.272Z,34.20
2019-05-28T09:38:23.496Z,34.10
2019-05-28T09:40:56.977Z,34.10
2019-05-28T09:43:30.611Z,34.10
2019-05-28T09:46:03.381Z,34.10
2019-05-28T09:48:36.524Z,33.90
2019-05-28T09:51:10.894Z,34.00
2019-05-28T09:53:44.830Z,34.20
2019-05-28T09:56:19.072Z,34.30
2019-05-28T09:58:53.519Z,34.50
2019-05-28T10:01:26.666Z,34.50
2019-05-28T10:03:58.737Z,34.30
2019-05-28T10:06:37.320Z,34.30
2019-05-28T10:09:06.572Z,34.30
2019-05-28T10:11:40.700Z,34.50
2019-05-28T10:14:15.106Z,34.60
2019-05-28T10:16:49.227Z,34.50
2019-05-28T10:19:23.882Z,34.40
2019-05-28T10:21:56.923Z,34.50
2019-05-28T10:24:32.444Z,34.60
2019-05-28T10:27:06.832Z,34.80
2019-05-28T10:29:39.942Z,34.80
2019-05-28T10:32:12.440Z,35.00
2019-05-28T10:35:02.628Z,35.20
2019-05-28T10:37:19.522Z,35.40
2019-05-28T10:39:52.678Z,35.40
2019-05-28T10:42:25.085Z,35.30
2019-05-28T10:44:58.438Z,35.40
2019-05-28T10:47:32.880Z,35.60
2019-05-28T10:50:10.521Z,35.90
2019-05-28T10:52:46.422Z,36.10
2019-05-28T10:55:29.623Z,36.00
2019-05-28T10:58:03.594Z,35.70
2019-05-28T11:00:36.259Z,35.90
2019-05-28T11:03:09.322Z,36.00
2019-05-28T11:05:43.502Z,36.00
2019-05-28T11:08:17.368Z,36.10
2019-05-28T11:10:53.009Z,36.10
2019-05-28T11:13:26.655Z,36.20
2019-05-28T11:15:59.237Z,36.20
2019-05-28T11:18:32.026Z,36.10
2019-05-28T11:21:09.532Z,36.10
2019-05-28T11:23:39.717Z,36.10
2019-05-28T11:26:14.263Z,36.10
2019-05-28T11:28:53.156Z,36.20
2019-05-28T11:31:26.757Z,36.30
2019-05-28T11:34:00.633Z,36.40
2019-05-28T11:36:39.499Z,36.30
2019-05-28T11:39:14.716Z,36.50
2019-05-28T11:41:49.089Z,36.50
2019-05-28T11:44:41.692Z,36.40
2019-05-28T11:47:19.923Z,36.40
2019-05-28T11:49:58.126Z,36.50
2019-05-28T11:52:34.824Z,36.40
2019-05-28T11:55:19.439Z,36.50
2019-05-28T11:57:52.490Z,36.30
2019-05-28T12:00:27.325Z,36.50
2019-05-28T12:02:59.514Z,36.60
2019-05-28T12:05:33.578Z,36.60
2019-05-28T12:08:08.126Z,36.70
2019-05-28T12:10:39.895Z,36.90
2019-05-28T12:13:12.952Z,36.60
2019-05-28T12:15:46.419Z,36.70
2019-05-28T12:18:19.654Z,36.80
2019-05-28T12:20:53.314Z,37.10
2019-05-28T12:23:26.366Z,37.00
2019-05-28T12:25:58.958Z,36.90
2019-05-28T12:28:37.694Z,36.90
2019-05-28T12:31:06.809Z,36.80
2019-05-28T12:33:40.912Z,36.90
2019-05-28T12:36:13.847Z,37.00
2019-05-28T12:38:46.681Z,37.00
2019-05-28T12:41:21.191Z,36.90
2019-05-28T12:43:54.960Z,36.70
2019-05-28T12:46:28.691Z,36.70
2019-05-28T12:49:02.368Z,36.70
2019-05-28T12:51:35.818Z,36.70
2019-05-28T12:54:10.707Z,36.70
2019-05-28T12:56:43.265Z,36.30
2019-05-28T12:59:17.657Z,36.60
2019-05-28T13:01:55.954Z,36.70
2019-05-28T13:04:29.425Z,37.00
2019-05-28T13:07:02.893Z,37.00
2019-05-28T13:09:36.946Z,37.10
2019-05-28T13:12:20.674Z,37.10
2019-05-28T13:14:53.941Z,37.20
2019-05-28T13:17:29.430Z,37.30
2019-05-28T13:20:03.011Z,37.40
2019-05-28T13:22:36.426Z,37.20
2019-05-28T13:25:09.979Z,36.80
2019-05-28T13:27:42.550Z,37.10
2019-05-28T13:30:17.571Z,37.00
2019-05-28T13:32:51.222Z,36.40
2019-05-28T13:35:24.594Z,36.20
2019-05-28T13:37:58.507Z,35.90
2019-05-28T13:40:32.514Z,35.90
2019-05-28T13:43:06.569Z,35.80
2019-05-28T13:45:40.849Z,35.70
2019-05-28T13:48:24.942Z,35.70
2019-05-28T13:50:59.128Z,35.80
2019-05-28T13:53:34.564Z,36.30
2019-05-28T13:56:08.616Z,36.20
2019-05-28T13:58:41.823Z,36.30
2019-05-28T14:01:25.823Z,36.00
2019-05-28T14:03:58.608Z,35.90
2019-05-28T14:06:32.072Z,35.70
2019-05-28T14:09:08.214Z,35.90
2019-05-28T14:11:41.065Z,35.70
2019-05-28T14:14:15.238Z,35.60
2019-05-28T14:16:50.130Z,35.70
2019-05-28T14:19:23.676Z,35.80
2019-05-28T14:21:58.013Z,36.00
2019-05-28T14:24:30.587Z,35.80
2019-05-28T14:27:05.703Z,36.10
2019-05-28T14:29:39.422Z,35.90
2019-05-28T14:32:11.442Z,35.90
2019-05-28T14:34:45.708Z,35.90
2019-05-28T14:37:19.054Z,35.90
2019-05-28T14:39:51.594Z,35.70
2019-05-28T14:42:24.519Z,35.80
2019-05-28T14:44:58.462Z,35.80
2019-05-28T14:47:32.043Z,35.60
2019-05-28T14:50:08.343Z,35.60
2019-05-28T14:52:41.834Z,35.50
2019-05-28T14:55:16.787Z,35.30
2019-05-28T14:57:50.385Z,35.20
2019-05-28T15:00:24.054Z,35.20
2019-05-28T15:02:56.575Z,35.30
2019-05-28T15:05:29.413Z,35.10
2019-05-28T15:08:02.461Z,35.10
2019-05-28T15:10:36.239Z,34.80
2019-05-28T15:13:09.625Z,34.60
2019-05-28T15:15:43.138Z,34.50
2019-05-28T15:18:17.090Z,34.30
2019-05-28T15:20:49.671Z,34.20
2019-05-28T15:23:24.706Z,34.00
2019-05-28T15:25:58.003Z,34.20
2019-05-28T15:28:30.758Z,34.50
2019-05-28T15:31:04.615Z,34.60
2019-05-28T15:33:37.940Z,34.80
2019-05-28T15:36:11.443Z,34.80
2019-05-28T15:38:45.196Z,34.60
2019-05-28T15:41:19.305Z,34.50
2019-05-28T15:43:53.618Z,34.20
2019-05-28T15:46:27.538Z,33.80
2019-05-28T15:49:02.482Z,33.40
2019-05-28T15:51:35.290Z,33.10
2019-05-28T15:54:08.375Z,33.00
2019-05-28T15:56:41.787Z,33.00
2019-05-28T15:59:17.306Z,33.00
2019-05-28T16:01:49.806Z,32.90
2019-05-28T16:04:23.787Z,32.90
2019-05-28T16:06:58.066Z,32.70
2019-05-28T16:09:33.992Z,32.60
2019-05-28T16:12:25.656Z,32.60
2019-05-28T16:14:59.493Z,32.70
2019-05-28T16:17:33.563Z,32.70
2019-05-28T16:20:10.650Z,32.60
2019-05-28T16:22:47.618Z,32.40
2019-05-28T16:25:24.138Z,32.20
2019-05-28T16:27:59.794Z,32.10
2019-05-28T16:30:35.492Z,32.00
2019-05-28T16:33:08.838Z,31.90
2019-05-28T16:35:45.122Z,31.80
2019-05-28T16:38:27.038Z,31.80
2019-05-28T16:41:03.244Z,31.60
2019-05-28T16:43:41.645Z,31.50
2019-05-28T16:46:16.760Z,31.30
2019-05-28T16:48:52.936Z,31.20
2019-05-28T16:54:38.521Z,30.90
2019-05-28T16:57:17.654Z,30.90
2019-05-28T16:59:54.677Z,30.80
2019-05-28T17:02:31.854Z,30.70
2019-05-28T17:05:13.682Z,30.60
2019-05-28T17:07:50.423Z,30.40
2019-05-28T17:10:33.660Z,30.30
2019-05-28T17:13:11.678Z,30.00
2019-05-28T17:15:47.414Z,29.70
2019-05-28T17:18:22.804Z,29.50
2019-05-28T17:20:55.468Z,29.70
2019-05-28T17:23:27.974Z,29.90
2019-05-28T17:26:00.214Z,29.60
2019-05-28T17:28:33.893Z,29.40
2019-05-28T17:31:08.764Z,29.40
2019-05-28T17:33:43.765Z,29.40
2019-05-28T17:36:18.380Z,29.60
2019-05-28T17:38:52.690Z,29.50
2019-05-28T17:41:27.538Z,29.40
2019-05-28T17:44:01.582Z,29.40
2019-05-28T17:46:34.591Z,29.40
2019-05-28T17:49:08.334Z,29.40
2019-05-28T17:51:41.769Z,29.30
2019-05-28T17:54:16.602Z,29.20
2019-05-28T17:56:50.629Z,29.10
2019-05-28T17:59:24.288Z,28.90
2019-05-28T18:01:57.175Z,29.00
2019-05-28T18:04:30.014Z,28.90
2019-05-28T18:07:02.867Z,28.90
2019-05-28T18:09:36.081Z,28.90
2019-05-28T18:12:08.736Z,28.70
2019-05-28T18:14:42.765Z,28.50
2019-05-28T18:17:16.521Z,28.50
2019-05-28T18:19:49.627Z,28.50
2019-05-28T18:22:24.134Z,28.50
2019-05-28T18:24:57.525Z,28.50
2019-05-28T18:27:30.974Z,28.40
2019-05-28T18:30:05.096Z,28.10
2019-05-28T18:32:38.559Z,27.80
2019-05-28T18:35:12.446Z,27.80
2019-05-28T18:37:46.067Z,27.70
2019-05-28T18:40:19.910Z,27.70
2019-05-28T18:42:52.793Z,27.70
2019-05-28T18:45:25.305Z,27.50
2019-05-28T18:47:59.892Z,27.30
2019-05-28T18:50:33.767Z,27.10
2019-05-28T18:53:08.086Z,27.00
2019-05-28T18:55:41.307Z,27.00
2019-05-28T18:58:15.295Z,26.90
2019-05-28T19:00:48.251Z,26.90
2019-05-28T19:03:22.105Z,26.80
2019-05-28T19:05:55.487Z,27.00
2019-05-28T19:08:27.609Z,27.10
2019-05-28T19:11:01.231Z,26.70
2019-05-28T19:13:39.230Z,26.60
2019-05-28T19:16:17.503Z,26.40
2019-05-28T19:18:50.628Z,26.30
2019-05-28T19:21:25.298Z,26.30
2019-05-28T19:23:59.898Z,26.20
2019-05-28T19:26:33.814Z,26.10
2019-05-28T19:29:08.011Z,26.10
2019-05-28T19:31:42.414Z,26.10
2019-05-28T19:34:15.637Z,26.10
2019-05-28T19:36:49.650Z,26.00
2019-05-28T19:39:24.374Z,25.90
2019-05-28T19:41:57.114Z,25.90
2019-05-28T19:44:31.366Z,25.90
2019-05-28T19:47:05.102Z,25.80
2019-05-28T19:49:39.090Z,25.80
2019-05-28T19:52:11.670Z,25.80
2019-05-28T19:54:45.236Z,25.80
2019-05-28T19:57:19.802Z,25.80
2019-05-28T19:59:52.656Z,25.70
2019-05-28T20:02:26.838Z,25.80
2019-05-28T20:05:00.461Z,25.90
2019-05-28T20:07:33.200Z,26.00
2019-05-28T20:10:06.592Z,26.00
2019-05-28T20:12:40.461Z,26.10
2019-05-28T20:15:15.071Z,26.10
2019-05-28T20:17:48.439Z,26.20
2019-05-28T20:20:22.940Z,26.10
2019-05-28T20:22:56.374Z,26.10
2019-05-28T20:25:29.488Z,26.00
2019-05-28T20:28:05.064Z,25.90
2019-05-28T20:30:38.084Z,25.80
2019-05-28T20:33:11.443Z,25.70
2019-05-28T20:35:45.653Z,25.70
2019-05-28T20:38:20.400Z,25.60
2019-05-28T20:41:01.921Z,25.50
2019-05-28T20:43:37.834Z,25.40
2019-05-28T20:46:12.414Z,25.30
2019-05-28T20:48:50.395Z,25.20
2019-05-28T20:51:24.913Z,25.20
2019-05-28T20:53:58.606Z,25.20
2019-05-28T20:56:31.814Z,25.30
2019-05-28T20:59:04.777Z,25.40
2019-05-28T21:01:40.771Z,25.40
2019-05-28T21:04:13.679Z,25.40
2019-05-28T21:06:46.240Z,25.40
2019-05-28T21:09:19.213Z,25.40
2019-05-28T21:11:52.764Z,25.40
2019-05-28T21:14:26.703Z,25.40
2019-05-28T21:17:00.204Z,25.30
2019-05-28T21:19:33.309Z,25.20
2019-05-28T21:22:07.388Z,25.00
2019-05-28T21:24:40.343Z,24.80
2019-05-28T21:27:13.116Z,24.70
2019-05-28T21:29:45.453Z,24.50
2019-05-28T21:32:18.501Z,24.40
2019-05-28T21:34:54.944Z,24.40
2019-05-28T21:37:26.698Z,24.40
2019-05-28T21:40:00.079Z,24.40
2019-05-28T21:42:33.681Z,24.50
2019-05-28T21:45:08.303Z,24.50
2019-05-28T21:47:42.090Z,24.50
2019-05-28T21:50:15.497Z,24.60
2019-05-28T21:52:49.691Z,24.60
2019-05-28T21:55:22.339Z,24.60
2019-05-28T21:57:56.064Z,24.50
2019-05-28T22:00:49.017Z,24.50
2019-05-28T22:03:22.386Z,24.40
2019-05-28T22:05:55.340Z,24.40
2019-05-28T22:08:28.284Z,24.40
2019-05-28T22:11:06.186Z,24.40
2019-05-28T22:13:49.818Z,24.40
2019-05-28T22:16:24.602Z,24.30
2019-05-28T22:18:58.251Z,24.20
2019-05-28T22:21:31.582Z,24.20
2019-05-28T22:24:06.205Z,24.10
2019-05-28T22:26:39.330Z,24.10
2019-05-28T22:29:12.635Z,24.00
2019-05-28T22:31:47.992Z,23.90
2019-05-28T22:34:21.275Z,23.80
2019-05-28T22:36:53.442Z,23.80
2019-05-28T22:39:29.481Z,23.70
2019-05-28T22:42:04.431Z,23.70
2019-05-28T22:44:38.956Z,23.60
2019-05-28T22:47:11.741Z,23.50
2019-05-28T22:49:46.400Z,23.40
2019-05-28T22:52:22.160Z,23.40
2019-05-28T22:54:55.404Z,23.40
2019-05-28T22:57:28.008Z,23.30
2019-05-28T23:00:03.086Z,23.20
2019-05-28T23:02:36.255Z,23.20
2019-05-28T23:05:10.211Z,23.20
2019-05-28T23:07:45.042Z,23.20
2019-05-28T23:10:17.379Z,23.10
2019-05-28T23:12:52.066Z,23.00
2019-05-28T23:15:25.526Z,22.90
2019-05-28T23:18:00.361Z,22.90
2019-05-28T23:20:34.934Z,22.80
2019-05-28T23:23:09.486Z,22.70
2019-05-28T23:25:42.597Z,22.60
2019-05-28T23:28:15.793Z,22.50
2019-05-28T23:30:48.777Z,22.50
2019-05-28T23:33:22.622Z,22.40
2019-05-28T23:35:57.254Z,22.40
2019-05-28T23:38:31.122Z,22.30
2019-05-28T23:41:05.104Z,22.20
2019-05-28T23:43:38.056Z,22.10
2019-05-28T23:46:10.109Z,22.10
2019-05-28T23:48:43.639Z,22.00
2019-05-28T23:51:16.040Z,22.00
2019-05-28T23:53:48.623Z,21.90
2019-05-28T23:56:22.814Z,21.80
2019-05-28T23:58:56.577Z,21.80
